sensor_id;sensor_type;location;lat;lon;timestamp;P1;durP1;ratioP1;P2;durP2;ratioP2
18754;SDS011;35061;47.664;9.166;2023-08-12T09:01:23;7.05;;;5.62;;
18754;SDS011;35061;47.664;9.166;2023-08-12T09:03:51;6.12;;;5.25;;
18754;SDS011;35061;47.664;9.166;2023-08-12T09:06:26;7.18;;;6.47;;
18754;SDS011;35061;47.664;9.166;2023-08-12T09:08:56;6.30;;;5.70;;
18754;SDS011;35061;47.664;9.166;2023-08-12T09:11:25;6.15;;;5.20;;
18754;SDS011;35061;47.664;9.166;2023-08-12T09:13:53;6.55;;;5.57;;
18754;SDS011;35061;47.664;9.166;2023-08-12T09:16:21;6.07;;;5.55;;
18754;SDS011;35061;47.664;9.166;2023-08-12T09:18:55;5.68;;;5.18;;
18754;SDS011;35061;47.664;9.166;2023-08-12T09:21:23;8.15;;;5.95;;
18754;SDS011;35061;47.664;9.166;2023-08-12T09:23:51;5.70;;;5.20;;
18754;SDS011;35061;47.664;9.166;2023-08-12T09:26:20;5.53;;;4.90;;
18754;SDS011;35061;47.664;9.166;2023-08-12T09:28:48;6.18;;;5.03;;
18754;SDS011;35061;47.664;9.166;2023-08-12T09:31:23;4.10;;;3.70;;
18754;SDS011;35061;47.664;9.166;2023-08-12T09:33:57;5.72;;;4.65;;
18754;SDS011;35061;47.664;9.166;2023-08-12T09:36:29;4.72;;;4.32;;
18754;SDS011;35061;47.664;9.166;2023-08-12T09:38:58;6.50;;;4.12;;
18754;SDS011;35061;47.664;9.166;2023-08-12T09:41:26;5.22;;;4.45;;
18754;SDS011;35061;47.664;9.166;2023-08-12T09:43:56;6.20;;;4.97;;
18754;SDS011;35061;47.664;9.166;2023-08-12T09:46:26;6.05;;;5.25;;
18754;SDS011;35061;47.664;9.166;2023-08-12T09:48:55;5.87;;;5.20;;
18754;SDS011;35061;47.664;9.166;2023-08-12T09:51:23;5.70;;;5.28;;
18754;SDS011;35061;47.664;9.166;2023-08-12T09:53:51;4.57;;;4.18;;
18754;SDS011;35061;47.664;9.166;2023-08-12T09:56:21;5.50;;;5.00;;
18754;SDS011;35061;47.664;9.166;2023-08-12T09:58:51;4.82;;;4.43;;
18754;SDS011;35061;47.664;9.166;2023-08-12T10:01:20;4.80;;;4.40;;
18754;SDS011;35061;47.664;9.166;2023-08-12T10:03:50;4.45;;;4.05;;
18754;SDS011;35061;47.664;9.166;2023-08-12T10:06:19;5.35;;;4.28;;
18754;SDS011;35061;47.664;9.166;2023-08-12T10:08:47;5.72;;;5.07;;
18754;SDS011;35061;47.664;9.166;2023-08-12T10:11:16;5.28;;;4.87;;
18754;SDS011;35061;47.664;9.166;2023-08-12T10:13:45;4.65;;;4.25;;
18754;SDS011;35061;47.664;9.166;2023-08-12T10:16:14;4.85;;;4.32;;
18754;SDS011;35061;47.664;9.166;2023-08-12T10:18:43;5.12;;;4.68;;
18754;SDS011;35061;47.664;9.166;2023-08-12T10:21:13;5.45;;;5.00;;
18754;SDS011;35061;47.664;9.166;2023-08-12T10:23:42;5.50;;;4.82;;
18754;SDS011;35061;47.664;9.166;2023-08-12T10:26:13;4.80;;;3.80;;
18754;SDS011;35061;47.664;9.166;2023-08-12T10:28:43;6.57;;;4.50;;
18754;SDS011;35061;47.664;9.166;2023-08-12T10:31:11;4.30;;;4.00;;
18754;SDS011;35061;47.664;9.166;2023-08-12T10:33:40;4.82;;;4.43;;
18754;SDS011;35061;47.664;9.166;2023-08-12T10:36:09;4.82;;;4.35;;
18754;SDS011;35061;47.664;9.166;2023-08-12T10:38:37;6.72;;;5.03;;
18754;SDS011;35061;47.664;9.166;2023-08-12T10:41:18;4.87;;;4.47;;
18754;SDS011;35061;47.664;9.166;2023-08-12T10:43:53;5.60;;;4.25;;
18754;SDS011;35061;47.664;9.166;2023-08-12T10:46:32;4.82;;;4.43;;
18754;SDS011;35061;47.664;9.166;2023-08-12T10:49:02;6.90;;;4.50;;
18754;SDS011;35061;47.664;9.166;2023-08-12T10:51:49;5.87;;;4.35;;
18754;SDS011;35061;47.664;9.166;2023-08-12T10:54:25;5.40;;;4.90;;
18754;SDS011;35061;47.664;9.166;2023-08-12T11:05:11;5.10;;;4.70;;
18754;SDS011;35061;47.664;9.166;2023-08-12T11:07:58;5.72;;;5.18;;
18754;SDS011;35061;47.664;9.166;2023-08-12T11:10:34;6.18;;;5.12;;
18754;SDS011;35061;47.664;9.166;2023-08-12T11:13:02;4.85;;;4.43;;
18754;SDS011;35061;47.664;9.166;2023-08-12T11:15:35;5.35;;;4.87;;
18754;SDS011;35061;47.664;9.166;2023-08-12T11:18:06;5.15;;;4.68;;
18754;SDS011;35061;47.664;9.166;2023-08-12T11:20:37;7.18;;;5.10;;
18754;SDS011;35061;47.664;9.166;2023-08-12T11:23:07;5.18;;;4.62;;
18754;SDS011;35061;47.664;9.166;2023-08-12T11:25:37;5.03;;;4.57;;
18754;SDS011;35061;47.664;9.166;2023-08-12T11:28:06;5.28;;;4.78;;
18754;SDS011;35061;47.664;9.166;2023-08-12T11:30:35;5.80;;;4.60;;
18754;SDS011;35061;47.664;9.166;2023-08-12T11:33:09;5.10;;;4.70;;
18754;SDS011;35061;47.664;9.166;2023-08-12T11:35:46;5.95;;;4.70;;
18754;SDS011;35061;47.664;9.166;2023-08-12T11:38:14;5.12;;;4.72;;
18754;SDS011;35061;47.664;9.166;2023-08-12T11:40:43;4.50;;;4.10;;
18754;SDS011;35061;47.664;9.166;2023-08-12T11:43:11;5.90;;;5.00;;
18754;SDS011;35061;47.664;9.166;2023-08-12T11:45:41;5.10;;;4.70;;
18754;SDS011;35061;47.664;9.166;2023-08-12T11:48:09;4.62;;;4.22;;
18754;SDS011;35061;47.664;9.166;2023-08-12T11:50:37;4.22;;;3.83;;
18754;SDS011;35061;47.664;9.166;2023-08-12T11:53:06;4.72;;;4.32;;
18754;SDS011;35061;47.664;9.166;2023-08-12T11:55:35;5.03;;;4.28;;
18754;SDS011;35061;47.664;9.166;2023-08-12T11:58:03;4.40;;;3.85;;
18754;SDS011;35061;47.664;9.166;2023-08-12T12:00:32;4.35;;;3.95;;
18754;SDS011;35061;47.664;9.166;2023-08-12T12:03:00;4.62;;;4.20;;
18754;SDS011;35061;47.664;9.166;2023-08-12T12:05:30;4.60;;;4.18;;
18754;SDS011;35061;47.664;9.166;2023-08-12T12:07:59;5.07;;;4.12;;
18754;SDS011;35061;47.664;9.166;2023-08-12T12:10:30;5.18;;;4.07;;
18754;SDS011;35061;47.664;9.166;2023-08-12T12:13:01;4.57;;;3.92;;
18754;SDS011;35061;47.664;9.166;2023-08-12T12:15:31;3.92;;;3.60;;
18754;SDS011;35061;47.664;9.166;2023-08-12T12:18:09;7.18;;;4.07;;
18754;SDS011;35061;47.664;9.166;2023-08-12T12:20:54;3.50;;;3.20;;
18754;SDS011;35061;47.664;9.166;2023-08-12T12:23:27;4.32;;;3.92;;
18754;SDS011;35061;47.664;9.166;2023-08-12T12:25:59;3.70;;;3.40;;
18754;SDS011;35061;47.664;9.166;2023-08-12T12:28:28;4.82;;;3.10;;
18754;SDS011;35061;47.664;9.166;2023-08-12T12:30:57;3.85;;;3.55;;
18754;SDS011;35061;47.664;9.166;2023-08-12T12:33:25;3.75;;;3.45;;
18754;SDS011;35061;47.664;9.166;2023-08-12T12:35:55;4.80;;;3.40;;
18754;SDS011;35061;47.664;9.166;2023-08-12T12:38:27;3.83;;;3.50;;
18754;SDS011;35061;47.664;9.166;2023-08-12T12:40:55;5.20;;;4.03;;
18754;SDS011;35061;47.664;9.166;2023-08-12T12:43:22;3.90;;;3.58;;
18754;SDS011;35061;47.664;9.166;2023-08-12T12:45:51;3.95;;;3.22;;
18754;SDS011;35061;47.664;9.166;2023-08-12T12:48:19;3.55;;;3.20;;
18754;SDS011;35061;47.664;9.166;2023-08-12T12:50:47;3.25;;;2.80;;
18754;SDS011;35061;47.664;9.166;2023-08-12T12:53:15;3.47;;;3.10;;
18754;SDS011;35061;47.664;9.166;2023-08-12T12:55:43;3.75;;;3.40;;
18754;SDS011;35061;47.664;9.166;2023-08-12T12:58:11;3.30;;;3.00;;
18754;SDS011;35061;47.664;9.166;2023-08-12T13:00:40;5.47;;;3.28;;
18754;SDS011;35061;47.664;9.166;2023-08-12T13:03:08;3.90;;;3.17;;
18754;SDS011;35061;47.664;9.166;2023-08-12T13:05:36;3.53;;;2.95;;
18754;SDS011;35061;47.664;9.166;2023-08-12T13:08:04;3.55;;;3.25;;
18754;SDS011;35061;47.664;9.166;2023-08-12T13:10:33;3.50;;;3.20;;
18754;SDS011;35061;47.664;9.166;2023-08-12T13:13:01;3.30;;;3.00;;
18754;SDS011;35061;47.664;9.166;2023-08-12T13:15:30;3.35;;;2.92;;
18754;SDS011;35061;47.664;9.166;2023-08-12T13:18:00;3.53;;;2.87;;
18754;SDS011;35061;47.664;9.166;2023-08-12T13:20:29;2.97;;;2.67;;
18754;SDS011;35061;47.664;9.166;2023-08-12T13:22:57;3.42;;;3.10;;
18754;SDS011;35061;47.664;9.166;2023-08-12T13:25:25;3.25;;;2.60;;
18754;SDS011;35061;47.664;9.166;2023-08-12T13:27:55;2.95;;;2.50;;
18754;SDS011;35061;47.664;9.166;2023-08-12T13:30:24;3.33;;;3.03;;
18754;SDS011;35061;47.664;9.166;2023-08-12T13:32:52;3.72;;;3.10;;
18754;SDS011;35061;47.664;9.166;2023-08-12T13:35:20;5.40;;;2.55;;
18754;SDS011;35061;47.664;9.166;2023-08-12T13:37:49;3.70;;;2.78;;
18754;SDS011;35061;47.664;9.166;2023-08-12T13:40:18;4.75;;;2.72;;
18754;SDS011;35061;47.664;9.166;2023-08-12T13:42:46;3.20;;;2.92;;
18754;SDS011;35061;47.664;9.166;2023-08-12T13:45:15;3.17;;;2.92;;
18754;SDS011;35061;47.664;9.166;2023-08-12T13:47:43;4.55;;;2.97;;
18754;SDS011;35061;47.664;9.166;2023-08-12T13:50:11;3.08;;;2.50;;
18754;SDS011;35061;47.664;9.166;2023-08-12T13:52:40;2.92;;;2.65;;
18754;SDS011;35061;47.664;9.166;2023-08-12T13:55:08;2.65;;;2.37;;
18754;SDS011;35061;47.664;9.166;2023-08-12T13:57:37;3.40;;;3.10;;
18754;SDS011;35061;47.664;9.166;2023-08-12T14:00:05;4.62;;;2.85;;
18754;SDS011;35061;47.664;9.166;2023-08-12T14:02:37;3.20;;;2.67;;
18754;SDS011;35061;47.664;9.166;2023-08-12T14:05:06;3.37;;;2.80;;
18754;SDS011;35061;47.664;9.166;2023-08-12T14:07:35;2.78;;;2.58;;
18754;SDS011;35061;47.664;9.166;2023-08-12T14:10:03;2.80;;;2.50;;
18754;SDS011;35061;47.664;9.166;2023-08-12T14:12:32;4.50;;;2.90;;
18754;SDS011;35061;47.664;9.166;2023-08-12T14:15:00;3.10;;;2.80;;
18754;SDS011;35061;47.664;9.166;2023-08-12T14:17:29;3.50;;;2.40;;
18754;SDS011;35061;47.664;9.166;2023-08-12T14:19:57;3.15;;;2.85;;
18754;SDS011;35061;47.664;9.166;2023-08-12T14:22:27;3.12;;;2.83;;
18754;SDS011;35061;47.664;9.166;2023-08-12T14:24:55;2.83;;;2.62;;
18754;SDS011;35061;47.664;9.166;2023-08-12T14:27:24;3.65;;;2.70;;
18754;SDS011;35061;47.664;9.166;2023-08-12T14:29:52;3.00;;;2.65;;
18754;SDS011;35061;47.664;9.166;2023-08-12T14:32:21;3.80;;;2.92;;
18754;SDS011;35061;47.664;9.166;2023-08-12T14:34:49;3.30;;;2.80;;
18754;SDS011;35061;47.664;9.166;2023-08-12T14:37:17;4.20;;;3.10;;
18754;SDS011;35061;47.664;9.166;2023-08-12T14:39:45;3.37;;;3.03;;
18754;SDS011;35061;47.664;9.166;2023-08-12T14:42:13;4.50;;;3.10;;
18754;SDS011;35061;47.664;9.166;2023-08-12T14:44:41;3.22;;;2.75;;
18754;SDS011;35061;47.664;9.166;2023-08-12T14:47:09;3.20;;;2.90;;
18754;SDS011;35061;47.664;9.166;2023-08-12T14:49:38;3.28;;;3.05;;
18754;SDS011;35061;47.664;9.166;2023-08-12T14:52:14;3.47;;;3.17;;
18754;SDS011;35061;47.664;9.166;2023-08-12T14:54:43;3.60;;;2.60;;
18754;SDS011;35061;47.664;9.166;2023-08-12T14:57:11;3.10;;;2.80;;
18754;SDS011;35061;47.664;9.166;2023-08-12T14:59:39;3.33;;;3.03;;
18754;SDS011;35061;47.664;9.166;2023-08-12T15:02:07;2.92;;;2.58;;
18754;SDS011;35061;47.664;9.166;2023-08-12T15:04:35;3.20;;;2.92;;
18754;SDS011;35061;47.664;9.166;2023-08-12T15:07:03;3.90;;;2.87;;
18754;SDS011;35061;47.664;9.166;2023-08-12T15:09:32;4.15;;;3.25;;
18754;SDS011;35061;47.664;9.166;2023-08-12T15:12:00;3.30;;;3.00;;
18754;SDS011;35061;47.664;9.166;2023-08-12T15:14:28;3.40;;;3.10;;
18754;SDS011;35061;47.664;9.166;2023-08-12T15:16:58;3.35;;;2.85;;
18754;SDS011;35061;47.664;9.166;2023-08-12T15:19:26;3.15;;;2.85;;
18754;SDS011;35061;47.664;9.166;2023-08-12T15:21:54;3.70;;;3.15;;
18754;SDS011;35061;47.664;9.166;2023-08-12T15:24:22;3.00;;;2.65;;
18754;SDS011;35061;47.664;9.166;2023-08-12T15:26:50;3.47;;;2.90;;
18754;SDS011;35061;47.664;9.166;2023-08-12T15:29:18;3.40;;;2.95;;
18754;SDS011;35061;47.664;9.166;2023-08-12T15:31:46;3.42;;;3.12;;
18754;SDS011;35061;47.664;9.166;2023-08-12T15:34:15;3.30;;;3.00;;
18754;SDS011;35061;47.664;9.166;2023-08-12T15:36:43;2.90;;;2.60;;
18754;SDS011;35061;47.664;9.166;2023-08-12T15:39:11;3.35;;;3.00;;
18754;SDS011;35061;47.664;9.166;2023-08-12T15:41:40;3.45;;;3.15;;
18754;SDS011;35061;47.664;9.166;2023-08-12T15:44:13;4.37;;;3.33;;
18754;SDS011;35061;47.664;9.166;2023-08-12T15:46:42;3.45;;;3.08;;
18754;SDS011;35061;47.664;9.166;2023-08-12T15:49:10;3.95;;;3.28;;
18754;SDS011;35061;47.664;9.166;2023-08-12T15:51:38;4.97;;;3.20;;
18754;SDS011;35061;47.664;9.166;2023-08-12T15:54:07;3.30;;;3.00;;
18754;SDS011;35061;47.664;9.166;2023-08-12T15:56:35;3.33;;;3.03;;
18754;SDS011;35061;47.664;9.166;2023-08-12T15:59:04;3.50;;;3.20;;
18754;SDS011;35061;47.664;9.166;2023-08-12T16:01:33;3.35;;;3.05;;
18754;SDS011;35061;47.664;9.166;2023-08-12T16:04:01;3.12;;;2.92;;
18754;SDS011;35061;47.664;9.166;2023-08-12T16:06:30;3.65;;;3.35;;
18754;SDS011;35061;47.664;9.166;2023-08-12T16:08:59;5.03;;;3.30;;
18754;SDS011;35061;47.664;9.166;2023-08-12T16:11:43;5.07;;;3.85;;
18754;SDS011;35061;47.664;9.166;2023-08-12T16:14:11;4.50;;;3.50;;
18754;SDS011;35061;47.664;9.166;2023-08-12T16:16:39;4.07;;;3.15;;
18754;SDS011;35061;47.664;9.166;2023-08-12T16:19:08;3.47;;;3.17;;
18754;SDS011;35061;47.664;9.166;2023-08-12T16:21:36;3.97;;;3.60;;
18754;SDS011;35061;47.664;9.166;2023-08-12T16:24:04;4.12;;;3.65;;
18754;SDS011;35061;47.664;9.166;2023-08-12T16:26:32;3.45;;;3.15;;
18754;SDS011;35061;47.664;9.166;2023-08-12T16:29:00;3.72;;;3.25;;
18754;SDS011;35061;47.664;9.166;2023-08-12T16:31:29;4.53;;;3.53;;
18754;SDS011;35061;47.664;9.166;2023-08-12T16:33:58;4.10;;;3.28;;
18754;SDS011;35061;47.664;9.166;2023-08-12T16:36:26;3.55;;;3.25;;
18754;SDS011;35061;47.664;9.166;2023-08-12T16:38:54;3.37;;;2.83;;
18754;SDS011;35061;47.664;9.166;2023-08-12T16:41:22;5.15;;;3.53;;
18754;SDS011;35061;47.664;9.166;2023-08-12T16:43:50;3.17;;;2.87;;
18754;SDS011;35061;47.664;9.166;2023-08-12T16:46:18;3.65;;;3.33;;
18754;SDS011;35061;47.664;9.166;2023-08-12T16:48:46;4.80;;;3.22;;
18754;SDS011;35061;47.664;9.166;2023-08-12T16:51:14;4.43;;;3.25;;
18754;SDS011;35061;47.664;9.166;2023-08-12T16:53:42;3.87;;;3.45;;
18754;SDS011;35061;47.664;9.166;2023-08-12T16:56:10;4.43;;;3.35;;
18754;SDS011;35061;47.664;9.166;2023-08-12T16:58:39;3.28;;;2.97;;
18754;SDS011;35061;47.664;9.166;2023-08-12T17:01:08;3.50;;;3.30;;
18754;SDS011;35061;47.664;9.166;2023-08-12T17:03:36;3.58;;;2.83;;
18754;SDS011;35061;47.664;9.166;2023-08-12T17:06:04;3.87;;;3.58;;
18754;SDS011;35061;47.664;9.166;2023-08-12T17:08:32;4.10;;;3.70;;
18754;SDS011;35061;47.664;9.166;2023-08-12T17:11:03;4.05;;;3.67;;
18754;SDS011;35061;47.664;9.166;2023-08-12T17:13:33;4.10;;;3.35;;
18754;SDS011;35061;47.664;9.166;2023-08-12T17:16:01;5.40;;;3.90;;
18754;SDS011;35061;47.664;9.166;2023-08-12T17:18:29;3.78;;;3.40;;
18754;SDS011;35061;47.664;9.166;2023-08-12T17:20:57;4.40;;;3.72;;
18754;SDS011;35061;47.664;9.166;2023-08-12T17:23:25;5.18;;;4.12;;
18754;SDS011;35061;47.664;9.166;2023-08-12T17:25:53;4.90;;;3.62;;
18754;SDS011;35061;47.664;9.166;2023-08-12T17:28:21;3.65;;;3.33;;
18754;SDS011;35061;47.664;9.166;2023-08-12T17:30:49;3.85;;;3.42;;
18754;SDS011;35061;47.664;9.166;2023-08-12T17:33:17;6.85;;;3.95;;
18754;SDS011;35061;47.664;9.166;2023-08-12T17:35:45;4.47;;;4.07;;
18754;SDS011;35061;47.664;9.166;2023-08-12T17:38:13;4.05;;;3.65;;
18754;SDS011;35061;47.664;9.166;2023-08-12T17:40:41;3.90;;;3.53;;
18754;SDS011;35061;47.664;9.166;2023-08-12T17:43:09;4.78;;;3.65;;
18754;SDS011;35061;47.664;9.166;2023-08-12T17:45:37;4.32;;;3.87;;
18754;SDS011;35061;47.664;9.166;2023-08-12T17:48:05;4.10;;;3.70;;
18754;SDS011;35061;47.664;9.166;2023-08-12T17:50:34;4.15;;;3.50;;
18754;SDS011;35061;47.664;9.166;2023-08-12T17:53:02;4.75;;;3.92;;
18754;SDS011;35061;47.664;9.166;2023-08-12T17:55:30;3.78;;;3.37;;
18754;SDS011;35061;47.664;9.166;2023-08-12T17:57:58;5.85;;;3.75;;
18754;SDS011;35061;47.664;9.166;2023-08-12T18:00:26;5.15;;;3.65;;
18754;SDS011;35061;47.664;9.166;2023-08-12T18:02:54;4.37;;;3.60;;
18754;SDS011;35061;47.664;9.166;2023-08-12T18:05:23;3.60;;;3.30;;
18754;SDS011;35061;47.664;9.166;2023-08-12T18:07:51;3.97;;;3.53;;
18754;SDS011;35061;47.664;9.166;2023-08-12T18:10:19;3.35;;;3.05;;
18754;SDS011;35061;47.664;9.166;2023-08-12T18:12:47;4.45;;;3.35;;
18754;SDS011;35061;47.664;9.166;2023-08-12T18:15:15;3.62;;;3.33;;
18754;SDS011;35061;47.664;9.166;2023-08-12T18:17:43;4.28;;;3.42;;
18754;SDS011;35061;47.664;9.166;2023-08-12T18:20:11;4.37;;;3.35;;
18754;SDS011;35061;47.664;9.166;2023-08-12T18:22:40;4.32;;;3.33;;
18754;SDS011;35061;47.664;9.166;2023-08-12T18:25:08;3.67;;;3.37;;
18754;SDS011;35061;47.664;9.166;2023-08-12T18:27:36;3.87;;;3.47;;
18754;SDS011;35061;47.664;9.166;2023-08-12T18:30:04;4.22;;;3.55;;
18754;SDS011;35061;47.664;9.166;2023-08-12T18:32:32;4.05;;;3.60;;
18754;SDS011;35061;47.664;9.166;2023-08-12T18:35:02;4.35;;;3.25;;
18754;SDS011;35061;47.664;9.166;2023-08-12T18:37:30;4.80;;;3.00;;
18754;SDS011;35061;47.664;9.166;2023-08-12T18:39:58;5.87;;;3.70;;
18754;SDS011;35061;47.664;9.166;2023-08-12T18:42:26;4.62;;;3.60;;
18754;SDS011;35061;47.664;9.166;2023-08-12T18:44:54;5.30;;;3.65;;
18754;SDS011;35061;47.664;9.166;2023-08-12T18:47:22;5.50;;;3.30;;
18754;SDS011;35061;47.664;9.166;2023-08-12T18:49:50;3.67;;;3.37;;
18754;SDS011;35061;47.664;9.166;2023-08-12T18:52:18;5.68;;;3.70;;
18754;SDS011;35061;47.664;9.166;2023-08-12T18:54:46;3.80;;;3.50;;
18754;SDS011;35061;47.664;9.166;2023-08-12T18:57:15;4.65;;;3.30;;
18754;SDS011;35061;47.664;9.166;2023-08-12T18:59:43;4.15;;;3.72;;
18754;SDS011;35061;47.664;9.166;2023-08-12T19:02:11;3.95;;;3.40;;
18754;SDS011;35061;47.664;9.166;2023-08-12T19:04:40;5.57;;;3.80;;
18754;SDS011;35061;47.664;9.166;2023-08-12T19:07:08;5.28;;;3.90;;
18754;SDS011;35061;47.664;9.166;2023-08-12T19:09:36;5.62;;;4.70;;
18754;SDS011;35061;47.664;9.166;2023-08-12T19:12:04;5.70;;;4.15;;
18754;SDS011;35061;47.664;9.166;2023-08-12T19:14:32;6.07;;;3.85;;
18754;SDS011;35061;47.664;9.166;2023-08-12T19:17:00;5.47;;;3.87;;
18754;SDS011;35061;47.664;9.166;2023-08-12T19:19:28;4.18;;;3.78;;
18754;SDS011;35061;47.664;9.166;2023-08-12T19:21:56;6.12;;;3.95;;
18754;SDS011;35061;47.664;9.166;2023-08-12T19:24:24;8.20;;;4.00;;
18754;SDS011;35061;47.664;9.166;2023-08-12T19:26:52;5.45;;;4.28;;
18754;SDS011;35061;47.664;9.166;2023-08-12T19:29:20;4.95;;;3.75;;
18754;SDS011;35061;47.664;9.166;2023-08-12T19:31:48;3.80;;;3.40;;
18754;SDS011;35061;47.664;9.166;2023-08-12T19:34:16;8.00;;;3.97;;
18754;SDS011;35061;47.664;9.166;2023-08-12T19:36:45;8.48;;;4.12;;
18754;SDS011;35061;47.664;9.166;2023-08-12T19:39:13;4.37;;;3.78;;
18754;SDS011;35061;47.664;9.166;2023-08-12T19:41:41;6.22;;;5.62;;
18754;SDS011;35061;47.664;9.166;2023-08-12T19:44:09;5.28;;;4.78;;
18754;SDS011;35061;47.664;9.166;2023-08-12T19:46:38;4.80;;;4.40;;
18754;SDS011;35061;47.664;9.166;2023-08-12T19:49:07;4.82;;;4.43;;
18754;SDS011;35061;47.664;9.166;2023-08-12T19:51:35;4.90;;;4.15;;
18754;SDS011;35061;47.664;9.166;2023-08-12T19:54:03;4.82;;;4.30;;
18754;SDS011;35061;47.664;9.166;2023-08-12T19:56:31;4.70;;;4.28;;
18754;SDS011;35061;47.664;9.166;2023-08-12T19:58:59;5.07;;;4.60;;
18754;SDS011;35061;47.664;9.166;2023-08-12T20:01:27;8.48;;;4.60;;
18754;SDS011;35061;47.664;9.166;2023-08-12T20:03:55;3.92;;;3.62;;
18754;SDS011;35061;47.664;9.166;2023-08-12T20:06:23;4.72;;;4.32;;
18754;SDS011;35061;47.664;9.166;2023-08-12T20:08:51;5.22;;;4.72;;
18754;SDS011;35061;47.664;9.166;2023-08-12T20:11:19;4.60;;;4.20;;
18754;SDS011;35061;47.664;9.166;2023-08-12T20:13:47;5.62;;;4.85;;
18754;SDS011;35061;47.664;9.166;2023-08-12T20:16:15;5.95;;;3.95;;
18754;SDS011;35061;47.664;9.166;2023-08-12T20:18:46;4.87;;;4.30;;
18754;SDS011;35061;47.664;9.166;2023-08-12T20:21:16;5.87;;;4.97;;
18754;SDS011;35061;47.664;9.166;2023-08-12T20:23:44;5.35;;;4.62;;
18754;SDS011;35061;47.664;9.166;2023-08-12T20:26:12;6.20;;;4.32;;
18754;SDS011;35061;47.664;9.166;2023-08-12T20:28:40;5.82;;;4.12;;
18754;SDS011;35061;47.664;9.166;2023-08-12T20:31:08;5.03;;;4.35;;
18754;SDS011;35061;47.664;9.166;2023-08-12T20:33:36;5.18;;;4.68;;
18754;SDS011;35061;47.664;9.166;2023-08-12T20:36:05;6.30;;;4.37;;
18754;SDS011;35061;47.664;9.166;2023-08-12T20:38:34;5.43;;;4.20;;
18754;SDS011;35061;47.664;9.166;2023-08-12T20:41:02;5.82;;;4.00;;
18754;SDS011;35061;47.664;9.166;2023-08-12T20:43:30;5.65;;;4.25;;
18754;SDS011;35061;47.664;9.166;2023-08-12T20:45:58;5.68;;;4.30;;
18754;SDS011;35061;47.664;9.166;2023-08-12T20:48:26;5.85;;;4.00;;
18754;SDS011;35061;47.664;9.166;2023-08-12T20:50:54;4.82;;;4.05;;
18754;SDS011;35061;47.664;9.166;2023-08-12T20:53:23;6.25;;;4.28;;
18754;SDS011;35061;47.664;9.166;2023-08-12T20:55:51;5.75;;;4.03;;
18754;SDS011;35061;47.664;9.166;2023-08-12T20:58:19;3.90;;;3.50;;
18754;SDS011;35061;47.664;9.166;2023-08-12T21:00:47;6.12;;;4.28;;
18754;SDS011;35061;47.664;9.166;2023-08-12T21:03:15;4.37;;;3.97;;
18754;SDS011;35061;47.664;9.166;2023-08-12T21:05:48;4.28;;;3.83;;
18754;SDS011;35061;47.664;9.166;2023-08-12T21:08:17;5.62;;;4.07;;
18754;SDS011;35061;47.664;9.166;2023-08-12T21:10:52;4.07;;;3.55;;
18754;SDS011;35061;47.664;9.166;2023-08-12T21:13:23;4.28;;;3.62;;
18754;SDS011;35061;47.664;9.166;2023-08-12T21:16:00;4.43;;;3.83;;
18754;SDS011;35061;47.664;9.166;2023-08-12T21:18:28;4.57;;;4.12;;
18754;SDS011;35061;47.664;9.166;2023-08-12T21:20:56;3.92;;;3.55;;
18754;SDS011;35061;47.664;9.166;2023-08-12T21:23:24;5.75;;;4.10;;
18754;SDS011;35061;47.664;9.166;2023-08-12T21:25:52;5.50;;;4.22;;
18754;SDS011;35061;47.664;9.166;2023-08-12T21:28:22;4.28;;;3.90;;
18754;SDS011;35061;47.664;9.166;2023-08-12T21:30:51;5.05;;;3.85;;
18754;SDS011;35061;47.664;9.166;2023-08-12T21:33:24;5.22;;;4.15;;
18754;SDS011;35061;47.664;9.166;2023-08-12T21:35:52;5.05;;;3.95;;
18754;SDS011;35061;47.664;9.166;2023-08-12T21:38:20;4.10;;;3.72;;
18754;SDS011;35061;47.664;9.166;2023-08-12T21:40:48;4.62;;;4.10;;
18754;SDS011;35061;47.664;9.166;2023-08-12T21:43:16;4.35;;;3.85;;
18754;SDS011;35061;47.664;9.166;2023-08-12T21:45:44;6.72;;;3.92;;
18754;SDS011;35061;47.664;9.166;2023-08-12T21:48:15;4.05;;;3.33;;
18754;SDS011;35061;47.664;9.166;2023-08-12T21:50:43;4.50;;;3.62;;
18754;SDS011;35061;47.664;9.166;2023-08-12T21:53:12;7.82;;;4.28;;
18754;SDS011;35061;47.664;9.166;2023-08-12T21:55:41;4.15;;;3.67;;
18754;SDS011;35061;47.664;9.166;2023-08-12T21:58:10;6.03;;;3.42;;
18754;SDS011;35061;47.664;9.166;2023-08-12T22:00:42;4.82;;;3.75;;
18754;SDS011;35061;47.664;9.166;2023-08-12T22:03:10;4.32;;;3.92;;
18754;SDS011;35061;47.664;9.166;2023-08-12T22:05:39;4.93;;;4.12;;
18754;SDS011;35061;47.664;9.166;2023-08-12T22:08:06;5.10;;;4.60;;
18754;SDS011;35061;47.664;9.166;2023-08-12T22:10:34;4.55;;;3.85;;
18754;SDS011;35061;47.664;9.166;2023-08-12T22:13:02;6.03;;;4.32;;
18754;SDS011;35061;47.664;9.166;2023-08-12T22:15:30;4.05;;;3.67;;
18754;SDS011;35061;47.664;9.166;2023-08-12T22:17:59;4.18;;;3.67;;
18754;SDS011;35061;47.664;9.166;2023-08-12T22:20:27;4.37;;;3.97;;
18754;SDS011;35061;47.664;9.166;2023-08-12T22:22:58;5.28;;;3.87;;
18754;SDS011;35061;47.664;9.166;2023-08-12T22:25:29;5.55;;;4.28;;
18754;SDS011;35061;47.664;9.166;2023-08-12T22:27:57;4.70;;;4.18;;
18754;SDS011;35061;47.664;9.166;2023-08-12T22:30:25;8.07;;;4.35;;
18754;SDS011;35061;47.664;9.166;2023-08-12T22:32:53;7.22;;;4.68;;
18754;SDS011;35061;47.664;9.166;2023-08-12T22:35:21;6.62;;;4.53;;
18754;SDS011;35061;47.664;9.166;2023-08-12T22:37:49;5.32;;;3.97;;
18754;SDS011;35061;47.664;9.166;2023-08-12T22:40:17;6.93;;;4.57;;
18754;SDS011;35061;47.664;9.166;2023-08-12T22:42:45;7.82;;;4.68;;
18754;SDS011;35061;47.664;9.166;2023-08-12T22:45:13;8.68;;;6.28;;
18754;SDS011;35061;47.664;9.166;2023-08-12T22:47:41;8.85;;;7.25;;
18754;SDS011;35061;47.664;9.166;2023-08-12T22:50:09;9.52;;;7.78;;
18754;SDS011;35061;47.664;9.166;2023-08-12T22:52:39;10.98;;;8.00;;
18754;SDS011;35061;47.664;9.166;2023-08-12T22:55:08;11.93;;;10.73;;
18754;SDS011;35061;47.664;9.166;2023-08-12T22:57:36;12.52;;;11.23;;
18754;SDS011;35061;47.664;9.166;2023-08-12T23:00:04;14.93;;;11.30;;
18754;SDS011;35061;47.664;9.166;2023-08-12T23:02:34;14.82;;;11.45;;
18754;SDS011;35061;47.664;9.166;2023-08-12T23:05:02;13.18;;;11.88;;
18754;SDS011;35061;47.664;9.166;2023-08-12T23:07:30;15.70;;;12.52;;
18754;SDS011;35061;47.664;9.166;2023-08-12T23:09:58;17.77;;;15.98;;
18754;SDS011;35061;47.664;9.166;2023-08-12T23:12:26;17.20;;;15.40;;
18754;SDS011;35061;47.664;9.166;2023-08-12T23:14:54;16.65;;;14.95;;
18754;SDS011;35061;47.664;9.166;2023-08-12T23:17:22;16.90;;;15.13;;
18754;SDS011;35061;47.664;9.166;2023-08-12T23:19:50;13.60;;;12.30;;
18754;SDS011;35061;47.664;9.166;2023-08-12T23:22:18;10.27;;;9.15;;
18754;SDS011;35061;47.664;9.166;2023-08-12T23:24:46;10.82;;;9.70;;
18754;SDS011;35061;47.664;9.166;2023-08-12T23:27:14;11.77;;;10.63;;
18754;SDS011;35061;47.664;9.166;2023-08-12T23:29:42;12.23;;;9.88;;
18754;SDS011;35061;47.664;9.166;2023-08-12T23:32:10;14.77;;;12.48;;
18754;SDS011;35061;47.664;9.166;2023-08-12T23:34:39;13.50;;;10.82;;
18754;SDS011;35061;47.664;9.166;2023-08-12T23:37:07;12.02;;;10.82;;
18754;SDS011;35061;47.664;9.166;2023-08-12T23:39:35;12.18;;;10.82;;
18754;SDS011;35061;47.664;9.166;2023-08-12T23:42:03;10.52;;;9.52;;
18754;SDS011;35061;47.664;9.166;2023-08-12T23:44:31;10.10;;;9.00;;
18754;SDS011;35061;47.664;9.166;2023-08-12T23:46:59;9.20;;;8.25;;
18754;SDS011;35061;47.664;9.166;2023-08-12T23:49:27;9.50;;;8.10;;
18754;SDS011;35061;47.664;9.166;2023-08-12T23:51:54;8.95;;;7.90;;
18754;SDS011;35061;47.664;9.166;2023-08-12T23:54:23;9.45;;;7.15;;
18754;SDS011;35061;47.664;9.166;2023-08-12T23:56:51;8.40;;;7.18;;
18754;SDS011;35061;47.664;9.166;2023-08-12T23:59:19;8.60;;;7.47;;
